EZY78CA EGKK-LGKR
Flight info
| Callsign | EZY78CA |
|---|---|
| Flight time | 2h 56m |
| Altitude | 35000 |
| Route | MIMFO Y312 DVR UL9 KONAN DCT KOK DCT SISGA DCT KOMOB DCT PITES DCT EDISA DCT PICWI DCT UTABA DCT BEMKI DCT ELMEM DCT DIRAB DCT PEVAL DCT AIOSA DCT ENOXA DCT KAPPO DCT TIGRA |
| Aircraft | A320/M-SDE3FGHIRWY/LB1 |
Departure
| Time | 2026-04-13 17:28 |
|---|---|
| Airport | London Gatwick Airport (EGKK) |
Arrival
| Time | 2026-04-13 20:25 |
|---|---|
| Airport | Corfu Ioannis Kapodistrias International Airport (LGKR) |
| Time | Latitude | Longitude | Altitude | Speed | Heading |
|---|---|---|---|---|---|
| 2026-04-13 16:52 | 51.15572 | -0.17761 | 204 ft | 0 kts | 347° |
| 2026-04-13 17:08 | 51.15568 | -0.17759 | 202 ft | 2 kts | 347° |
| 2026-04-13 17:08 | 51.15550 | -0.17753 | 211 ft | 3 kts | 347° |
| 2026-04-13 17:08 | 51.15530 | -0.17746 | 214 ft | 3 kts | 348° |
| 2026-04-13 17:09 | 51.15513 | -0.17742 | 210 ft | 3 kts | 22° |
| 2026-04-13 17:09 | 51.15507 | -0.17746 | 211 ft | 1 kts | 77° |
| 2026-04-13 17:09 | 51.15504 | -0.17767 | 212 ft | 2 kts | 77° |
| 2026-04-13 17:09 | 51.15503 | -0.17775 | 214 ft | 0 kts | 77° |
| 2026-04-13 17:15 | 51.15506 | -0.17751 | 211 ft | 7 kts | 77° |
| 2026-04-13 17:16 | 51.15524 | -0.17610 | 202 ft | 17 kts | 78° |
| 2026-04-13 17:16 | 51.15538 | -0.17466 | 202 ft | 10 kts | 102° |
| 2026-04-13 17:16 | 51.15490 | -0.17417 | 204 ft | 8 kts | 168° |
| 2026-04-13 17:16 | 51.15440 | -0.17401 | 209 ft | 10 kts | 168° |
| 2026-04-13 17:17 | 51.15370 | -0.17377 | 211 ft | 10 kts | 167° |
| 2026-04-13 17:17 | 51.15300 | -0.17352 | 211 ft | 10 kts | 167° |
| 2026-04-13 17:17 | 51.15246 | -0.17305 | 208 ft | 9 kts | 122° |
| 2026-04-13 17:17 | 51.15256 | -0.17157 | 202 ft | 16 kts | 78° |
| 2026-04-13 17:18 | 51.15278 | -0.16994 | 204 ft | 14 kts | 78° |
| 2026-04-13 17:18 | 51.15292 | -0.16871 | 202 ft | 2 kts | 96° |
| 2026-04-13 17:18 | 51.15289 | -0.16856 | 202 ft | 1 kts | 111° |
| 2026-04-13 17:18 | 51.15288 | -0.16854 | 209 ft | 0 kts | 114° |
| 2026-04-13 17:19 | 51.15288 | -0.16852 | 208 ft | 1 kts | 115° |
| 2026-04-13 17:19 | 51.15254 | -0.16818 | 205 ft | 7 kts | 163° |
| 2026-04-13 17:19 | 51.15232 | -0.16810 | 210 ft | 0 kts | 167° |
| 2026-04-13 17:26 | 51.15192 | -0.16795 | 201 ft | 12 kts | 167° |
| 2026-04-13 17:26 | 51.15114 | -0.16858 | 204 ft | 11 kts | 249° |
| 2026-04-13 17:26 | 51.15110 | -0.16882 | 205 ft | 0 kts | 257° |
| 2026-04-13 17:27 | 51.15110 | -0.16883 | 205 ft | 1 kts | 257° |
| 2026-04-13 17:27 | 51.15072 | -0.17156 | 207 ft | 61 kts | 258° |
| 2026-04-13 17:28 | 51.14935 | -0.18148 | 205 ft | 121 kts | 258° |
| 2026-04-13 17:28 | 51.14718 | -0.19705 | 291 ft | 157 kts | 255° |
| 2026-04-13 17:28 | 51.14507 | -0.21270 | 1102 ft | 140 kts | 256° |
| 2026-04-13 17:28 | 51.14311 | -0.22740 | 1744 ft | 130 kts | 255° |
| 2026-04-13 17:29 | 51.14114 | -0.24199 | 2043 ft | 144 kts | 256° |
| 2026-04-13 17:29 | 51.13882 | -0.25901 | 2131 ft | 174 kts | 256° |
| 2026-04-13 17:29 | 51.13705 | -0.27945 | 2344 ft | 201 kts | 271° |
| 2026-04-13 17:29 | 51.14169 | -0.30143 | 2791 ft | 220 kts | 302° |
| 2026-04-13 17:30 | 51.15329 | -0.31759 | 3559 ft | 229 kts | 331° |
| 2026-04-13 17:30 | 51.16912 | -0.32206 | 4290 ft | 240 kts | 5° |
| 2026-04-13 17:30 | 51.18457 | -0.31138 | 4967 ft | 250 kts | 42° |
| 2026-04-13 17:30 | 51.19363 | -0.28798 | 5663 ft | 253 kts | 77° |
| 2026-04-13 17:31 | 51.19713 | -0.26047 | 6414 ft | 254 kts | 81° |
| 2026-04-13 17:31 | 51.20034 | -0.23259 | 7103 ft | 257 kts | 81° |
| 2026-04-13 17:31 | 51.20357 | -0.20442 | 7806 ft | 260 kts | 81° |
| 2026-04-13 17:31 | 51.20712 | -0.17475 | 8093 ft | 284 kts | 80° |
| 2026-04-13 17:32 | 51.21110 | -0.14319 | 8641 ft | 295 kts | 79° |
| 2026-04-13 17:32 | 51.21532 | -0.11088 | 9372 ft | 299 kts | 79° |
| 2026-04-13 17:32 | 51.21966 | -0.07817 | 10111 ft | 303 kts | 79° |
| 2026-04-13 17:32 | 51.22417 | -0.04413 | 10365 ft | 325 kts | 79° |
| 2026-04-13 17:33 | 51.22896 | -0.00758 | 10619 ft | 344 kts | 79° |
| 2026-04-13 17:33 | 51.23387 | 0.03027 | 11152 ft | 352 kts | 80° |
| 2026-04-13 17:33 | 51.23883 | 0.06872 | 11815 ft | 356 kts | 80° |
| 2026-04-13 17:33 | 51.24377 | 0.10705 | 12492 ft | 360 kts | 80° |
| 2026-04-13 17:34 | 51.25310 | 0.18623 | 13817 ft | 366 kts | 87° |
| 2026-04-13 17:34 | 51.25310 | 0.22686 | 14364 ft | 367 kts | 98° |
| 2026-04-13 17:34 | 51.25011 | 0.26757 | 14912 ft | 371 kts | 99° |
| 2026-04-13 17:35 | 51.24692 | 0.30865 | 15442 ft | 375 kts | 99° |
| 2026-04-13 17:35 | 51.24366 | 0.35029 | 15975 ft | 380 kts | 99° |
| 2026-04-13 17:35 | 51.24039 | 0.39234 | 16505 ft | 385 kts | 98° |
| 2026-04-13 17:35 | 51.23711 | 0.43501 | 17033 ft | 389 kts | 98° |
| 2026-04-13 17:36 | 51.23382 | 0.47813 | 17549 ft | 394 kts | 98° |
| 2026-04-13 17:36 | 51.23049 | 0.52170 | 17868 ft | 396 kts | 98° |
| 2026-04-13 17:36 | 51.22713 | 0.56527 | 17920 ft | 395 kts | 98° |
| 2026-04-13 17:36 | 51.22376 | 0.60872 | 17930 ft | 395 kts | 98° |
| 2026-04-13 17:37 | 51.22035 | 0.65227 | 17944 ft | 395 kts | 98° |
| 2026-04-13 17:37 | 51.21693 | 0.69575 | 17949 ft | 395 kts | 98° |
| 2026-04-13 17:37 | 51.21350 | 0.73915 | 17954 ft | 395 kts | 98° |
| 2026-04-13 17:37 | 51.20999 | 0.78281 | 18363 ft | 398 kts | 98° |
| 2026-04-13 17:38 | 51.20645 | 0.82689 | 18869 ft | 401 kts | 98° |
| 2026-04-13 17:38 | 51.20291 | 0.87128 | 19348 ft | 405 kts | 98° |
| 2026-04-13 17:38 | 51.19933 | 0.91606 | 19815 ft | 409 kts | 98° |
| 2026-04-13 17:38 | 51.19567 | 0.96125 | 20293 ft | 413 kts | 99° |
| 2026-04-13 17:39 | 51.19195 | 1.00692 | 20760 ft | 417 kts | 98° |
| 2026-04-13 17:39 | 51.18824 | 1.05238 | 21194 ft | 421 kts | 98° |
| 2026-04-13 17:39 | 51.18442 | 1.09885 | 21634 ft | 425 kts | 98° |
| 2026-04-13 17:39 | 51.18054 | 1.14578 | 22073 ft | 429 kts | 98° |
| 2026-04-13 17:40 | 51.17661 | 1.19320 | 22503 ft | 434 kts | 97° |
| 2026-04-13 17:40 | 51.17261 | 1.24110 | 22926 ft | 438 kts | 97° |
| 2026-04-13 17:40 | 51.16852 | 1.28943 | 23340 ft | 442 kts | 97° |
| 2026-04-13 17:40 | 51.16434 | 1.33809 | 23721 ft | 446 kts | 97° |
| 2026-04-13 17:41 | 51.16041 | 1.38727 | 24074 ft | 448 kts | 96° |
| 2026-04-13 17:41 | 51.15749 | 1.43681 | 24436 ft | 450 kts | 95° |
| 2026-04-13 17:41 | 51.15528 | 1.48656 | 24854 ft | 451 kts | 94° |
| 2026-04-13 17:41 | 51.15337 | 1.53652 | 25224 ft | 452 kts | 94° |
| 2026-04-13 17:42 | 51.15144 | 1.58667 | 25571 ft | 454 kts | 94° |
| 2026-04-13 17:42 | 51.14936 | 1.63693 | 25912 ft | 456 kts | 95° |
| 2026-04-13 17:42 | 51.14705 | 1.68737 | 26245 ft | 458 kts | 96° |
| 2026-04-13 17:42 | 51.14454 | 1.73806 | 26577 ft | 460 kts | 96° |
| 2026-04-13 17:43 | 51.14189 | 1.78888 | 26895 ft | 462 kts | 96° |
| 2026-04-13 17:43 | 51.13919 | 1.83996 | 27222 ft | 463 kts | 96° |
| 2026-04-13 17:43 | 51.13650 | 1.89124 | 27532 ft | 465 kts | 96° |
| 2026-04-13 17:43 | 51.13380 | 1.94245 | 27919 ft | 464 kts | 98° |
| 2026-04-13 17:44 | 51.13109 | 1.99368 | 28316 ft | 464 kts | 98° |
| 2026-04-13 17:44 | 51.12842 | 2.04425 | 28632 ft | 465 kts | 98° |
| 2026-04-13 17:44 | 51.12573 | 2.09570 | 28928 ft | 467 kts | 98° |
| 2026-04-13 17:44 | 51.12302 | 2.14725 | 29200 ft | 469 kts | 98° |
| 2026-04-13 17:45 | 51.12025 | 2.19908 | 29469 ft | 470 kts | 98° |
| 2026-04-13 17:45 | 51.11742 | 2.25099 | 29737 ft | 472 kts | 98° |
| 2026-04-13 17:45 | 51.11454 | 2.30317 | 29987 ft | 474 kts | 99° |
| 2026-04-13 17:45 | 51.11164 | 2.35553 | 30211 ft | 475 kts | 99° |
| 2026-04-13 17:46 | 51.10868 | 2.40810 | 30439 ft | 475 kts | 101° |
| 2026-04-13 17:46 | 51.10573 | 2.46039 | 30735 ft | 474 kts | 101° |
| 2026-04-13 17:46 | 51.10277 | 2.51256 | 31043 ft | 472 kts | 101° |
| 2026-04-13 17:46 | 51.09978 | 2.56456 | 31313 ft | 472 kts | 101° |
| 2026-04-13 17:47 | 51.09564 | 2.61612 | 31575 ft | 467 kts | 107° |
| 2026-04-13 17:47 | 51.08726 | 2.66567 | 31836 ft | 460 kts | 115° |
| 2026-04-13 17:47 | 51.07484 | 2.71213 | 32086 ft | 454 kts | 123° |
| 2026-04-13 17:47 | 51.06016 | 2.75647 | 32338 ft | 453 kts | 124° |
| 2026-04-13 17:48 | 51.04545 | 2.80074 | 32586 ft | 453 kts | 123° |
| 2026-04-13 17:48 | 51.03094 | 2.84442 | 32801 ft | 453 kts | 124° |
| 2026-04-13 17:48 | 51.01614 | 2.88900 | 33263 ft | 448 kts | 124° |
| 2026-04-13 17:48 | 51.00163 | 2.93261 | 33607 ft | 445 kts | 124° |
| 2026-04-13 17:49 | 50.98733 | 2.97541 | 33860 ft | 445 kts | 124° |
| 2026-04-13 17:49 | 50.97277 | 3.01880 | 34080 ft | 446 kts | 124° |
| 2026-04-13 17:49 | 50.95819 | 3.06218 | 34265 ft | 446 kts | 124° |
| 2026-04-13 17:49 | 50.94360 | 3.10559 | 34444 ft | 447 kts | 124° |
| 2026-04-13 17:50 | 50.92895 | 3.14910 | 34618 ft | 447 kts | 124° |
| 2026-04-13 17:50 | 50.91431 | 3.19257 | 34788 ft | 448 kts | 123° |
| 2026-04-13 17:50 | 50.90082 | 3.23714 | 34952 ft | 454 kts | 113° |
| 2026-04-13 17:50 | 50.89457 | 3.28665 | 35010 ft | 465 kts | 96° |
| 2026-04-13 17:51 | 50.89739 | 3.33808 | 35008 ft | 474 kts | 80° |
| 2026-04-13 17:51 | 50.90928 | 3.38718 | 35010 ft | 482 kts | 63° |
| 2026-04-13 17:51 | 50.92873 | 3.43060 | 35010 ft | 484 kts | 54° |
| 2026-04-13 17:51 | 50.94669 | 3.47502 | 35000 ft | 474 kts | 72° |
| 2026-04-13 17:52 | 50.95437 | 3.52476 | 35005 ft | 459 kts | 94° |
| 2026-04-13 17:52 | 50.95084 | 3.57389 | 35007 ft | 443 kts | 114° |
| 2026-04-13 17:52 | 50.93944 | 3.61879 | 35001 ft | 436 kts | 123° |
| 2026-04-13 17:53 | 50.91393 | 3.68712 | 35000 ft | 433 kts | 127° |
| 2026-04-13 17:53 | 50.87761 | 3.78275 | 34993 ft | 433 kts | 128° |
| 2026-04-13 17:54 | 50.84607 | 3.86347 | 35022 ft | 429 kts | 128° |
| 2026-04-13 17:54 | 50.81421 | 3.94283 | 35025 ft | 426 kts | 129° |
| 2026-04-13 17:55 | 50.78232 | 4.02176 | 35007 ft | 425 kts | 128° |
| 2026-04-13 17:55 | 50.75124 | 4.10060 | 35009 ft | 426 kts | 127° |
| 2026-04-13 17:56 | 50.72042 | 4.18112 | 35004 ft | 425 kts | 127° |
| 2026-04-13 17:56 | 50.68995 | 4.26041 | 35004 ft | 425 kts | 127° |
| 2026-04-13 17:57 | 50.65913 | 4.33984 | 35004 ft | 424 kts | 127° |
| 2026-04-13 17:57 | 50.62821 | 4.41896 | 35002 ft | 424 kts | 127° |
| 2026-04-13 17:58 | 50.59718 | 4.49800 | 35008 ft | 424 kts | 127° |
| 2026-04-13 17:58 | 50.56620 | 4.57695 | 35009 ft | 424 kts | 127° |
| 2026-04-13 17:59 | 50.53519 | 4.65573 | 34984 ft | 424 kts | 127° |
| 2026-04-13 17:59 | 50.50421 | 4.73421 | 35004 ft | 422 kts | 127° |
| 2026-04-13 18:00 | 50.47324 | 4.81232 | 35005 ft | 421 kts | 127° |
| 2026-04-13 18:00 | 50.44231 | 4.89012 | 35011 ft | 420 kts | 127° |
| 2026-04-13 18:01 | 50.41142 | 4.96770 | 35011 ft | 419 kts | 127° |
| 2026-04-13 18:01 | 50.38052 | 5.04493 | 35002 ft | 418 kts | 127° |
| 2026-04-13 18:02 | 50.34957 | 5.12208 | 34968 ft | 418 kts | 127° |
| 2026-04-13 18:02 | 50.31871 | 5.19878 | 34981 ft | 419 kts | 127° |
| 2026-04-13 18:03 | 50.28770 | 5.27597 | 34970 ft | 419 kts | 127° |
| 2026-04-13 18:03 | 50.25649 | 5.35311 | 34981 ft | 420 kts | 127° |
| 2026-04-13 18:04 | 50.22519 | 5.43016 | 34980 ft | 420 kts | 127° |
| 2026-04-13 18:04 | 50.19380 | 5.50716 | 34991 ft | 420 kts | 127° |
| 2026-04-13 18:05 | 50.16240 | 5.58420 | 34975 ft | 421 kts | 127° |
| 2026-04-13 18:05 | 50.13095 | 5.66118 | 34981 ft | 421 kts | 127° |
| 2026-04-13 18:06 | 50.09936 | 5.73807 | 34985 ft | 421 kts | 127° |
| 2026-04-13 18:06 | 50.06778 | 5.81474 | 34986 ft | 421 kts | 127° |
| 2026-04-13 18:07 | 50.03617 | 5.89141 | 34986 ft | 421 kts | 127° |
| 2026-04-13 18:07 | 50.00444 | 5.96796 | 34975 ft | 421 kts | 127° |
| 2026-04-13 18:08 | 49.97298 | 6.04387 | 34982 ft | 420 kts | 127° |
| 2026-04-13 18:08 | 49.94645 | 6.10769 | 34987 ft | 420 kts | 127° |
| 2026-04-13 18:09 | 49.90953 | 6.19611 | 34974 ft | 420 kts | 127° |
| 2026-04-13 18:09 | 49.88292 | 6.25968 | 34976 ft | 419 kts | 127° |
| 2026-04-13 18:10 | 49.85112 | 6.33539 | 34978 ft | 419 kts | 127° |
| 2026-04-13 18:10 | 49.81928 | 6.41101 | 34956 ft | 419 kts | 126° |
| 2026-04-13 18:11 | 49.78742 | 6.48654 | 34963 ft | 418 kts | 126° |
| 2026-04-13 18:11 | 49.75547 | 6.56192 | 34957 ft | 419 kts | 127° |
| 2026-04-13 18:12 | 49.72347 | 6.63706 | 34959 ft | 419 kts | 127° |
| 2026-04-13 18:12 | 49.69146 | 6.71223 | 34950 ft | 419 kts | 126° |
| 2026-04-13 18:13 | 49.65943 | 6.78741 | 34933 ft | 419 kts | 126° |
| 2026-04-13 18:13 | 49.62738 | 6.86239 | 34937 ft | 419 kts | 126° |
| 2026-04-13 18:14 | 49.59521 | 6.93732 | 34939 ft | 419 kts | 126° |
| 2026-04-13 18:14 | 49.56292 | 7.01210 | 34949 ft | 419 kts | 126° |
| 2026-04-13 18:15 | 49.53076 | 7.08631 | 34956 ft | 419 kts | 127° |
| 2026-04-13 18:15 | 49.49843 | 7.16093 | 34953 ft | 419 kts | 126° |
| 2026-04-13 18:16 | 49.46606 | 7.23556 | 34950 ft | 420 kts | 126° |
| 2026-04-13 18:16 | 49.43355 | 7.31026 | 34953 ft | 420 kts | 126° |
| 2026-04-13 18:17 | 49.40095 | 7.38496 | 34959 ft | 420 kts | 126° |
| 2026-04-13 18:17 | 49.36834 | 7.45948 | 34961 ft | 421 kts | 126° |
| 2026-04-13 18:18 | 49.33564 | 7.53392 | 34954 ft | 421 kts | 126° |
| 2026-04-13 18:18 | 49.30291 | 7.60828 | 34941 ft | 421 kts | 126° |
| 2026-04-13 18:19 | 49.27013 | 7.68248 | 34948 ft | 421 kts | 126° |
| 2026-04-13 18:19 | 49.23719 | 7.75673 | 34949 ft | 421 kts | 126° |
| 2026-04-13 18:20 | 49.20421 | 7.83088 | 34953 ft | 422 kts | 126° |
| 2026-04-13 18:20 | 49.17116 | 7.90508 | 34954 ft | 422 kts | 126° |
| 2026-04-13 18:21 | 49.13805 | 7.97931 | 34939 ft | 422 kts | 126° |
| 2026-04-13 18:21 | 49.10493 | 8.05329 | 34946 ft | 422 kts | 126° |
| 2026-04-13 18:22 | 49.07170 | 8.12730 | 34947 ft | 422 kts | 126° |
| 2026-04-13 18:22 | 49.03869 | 8.20058 | 34953 ft | 422 kts | 126° |
| 2026-04-13 18:23 | 49.00537 | 8.27437 | 34955 ft | 422 kts | 126° |
| 2026-04-13 18:23 | 48.96656 | 8.34068 | 34950 ft | 419 kts | 140° |
| 2026-04-13 18:24 | 48.92499 | 8.40305 | 34952 ft | 420 kts | 134° |
| 2026-04-13 18:24 | 48.88483 | 8.46777 | 34937 ft | 421 kts | 134° |
| 2026-04-13 18:25 | 48.84483 | 8.53203 | 34939 ft | 421 kts | 135° |
| 2026-04-13 18:25 | 48.80453 | 8.59650 | 34942 ft | 421 kts | 135° |
| 2026-04-13 18:26 | 48.76423 | 8.66092 | 34939 ft | 421 kts | 135° |
| 2026-04-13 18:26 | 48.72396 | 8.72532 | 34941 ft | 421 kts | 134° |
| 2026-04-13 18:27 | 48.68354 | 8.78963 | 34924 ft | 422 kts | 135° |
| 2026-04-13 18:27 | 48.64300 | 8.85387 | 34928 ft | 422 kts | 135° |
| 2026-04-13 18:28 | 48.60240 | 8.91806 | 34928 ft | 422 kts | 135° |
| 2026-04-13 18:28 | 48.56180 | 8.98223 | 34932 ft | 422 kts | 135° |
| 2026-04-13 18:29 | 48.52116 | 9.04638 | 34932 ft | 422 kts | 135° |
| 2026-04-13 18:29 | 48.48071 | 9.10999 | 34919 ft | 422 kts | 135° |
| 2026-04-13 18:30 | 48.44007 | 9.17354 | 34942 ft | 420 kts | 135° |
| 2026-04-13 18:30 | 48.39957 | 9.23687 | 34947 ft | 419 kts | 135° |
| 2026-04-13 18:31 | 48.35903 | 9.30009 | 34946 ft | 419 kts | 136° |
| 2026-04-13 18:31 | 48.31849 | 9.36312 | 34942 ft | 418 kts | 136° |
| 2026-04-13 18:32 | 48.27804 | 9.42588 | 34942 ft | 418 kts | 136° |
| 2026-04-13 18:32 | 48.23609 | 9.48515 | 34928 ft | 416 kts | 142° |
| 2026-04-13 18:33 | 48.19145 | 9.54011 | 34940 ft | 415 kts | 142° |
| 2026-04-13 18:33 | 48.14687 | 9.59487 | 34936 ft | 414 kts | 142° |
| 2026-04-13 18:34 | 48.08013 | 9.67661 | 34931 ft | 413 kts | 142° |
| 2026-04-13 18:34 | 48.03570 | 9.73097 | 34928 ft | 413 kts | 142° |
| 2026-04-13 18:35 | 47.99124 | 9.78527 | 34935 ft | 413 kts | 142° |
| 2026-04-13 18:35 | 47.94671 | 9.83943 | 34937 ft | 412 kts | 142° |
| 2026-04-13 18:36 | 47.90237 | 9.89336 | 34944 ft | 410 kts | 142° |
| 2026-04-13 18:36 | 47.88144 | 9.92224 | 34926 ft | 412 kts | 131° |
| 2026-04-13 18:36 | 47.86410 | 9.95633 | 34919 ft | 414 kts | 127° |
| 2026-04-13 18:37 | 47.83329 | 10.02817 | 34915 ft | 416 kts | 122° |
| 2026-04-13 18:37 | 47.81592 | 10.06281 | 34894 ft | 411 kts | 139° |
| 2026-04-13 18:37 | 47.79319 | 10.08815 | 34921 ft | 408 kts | 149° |
| 2026-04-13 18:38 | 47.74520 | 10.13295 | 34919 ft | 408 kts | 148° |
| 2026-04-13 18:38 | 47.69747 | 10.17756 | 34924 ft | 407 kts | 148° |
| 2026-04-13 18:39 | 47.64949 | 10.22221 | 34927 ft | 406 kts | 148° |
| 2026-04-13 18:39 | 47.60157 | 10.26654 | 34920 ft | 406 kts | 148° |
| 2026-04-13 18:40 | 47.55366 | 10.31079 | 34903 ft | 405 kts | 148° |
| 2026-04-13 18:40 | 47.50628 | 10.35633 | 34911 ft | 406 kts | 147° |
| 2026-04-13 18:41 | 47.45928 | 10.40266 | 34881 ft | 406 kts | 147° |
| 2026-04-13 18:41 | 47.41211 | 10.44887 | 34867 ft | 407 kts | 147° |
| 2026-04-13 18:42 | 47.36485 | 10.49459 | 34864 ft | 406 kts | 147° |
| 2026-04-13 18:42 | 47.31750 | 10.54005 | 34863 ft | 405 kts | 147° |
| 2026-04-13 18:43 | 47.27036 | 10.58570 | 34855 ft | 406 kts | 146° |
| 2026-04-13 18:43 | 47.22452 | 10.63354 | 34841 ft | 407 kts | 144° |
| 2026-04-13 18:44 | 47.17873 | 10.68261 | 34856 ft | 407 kts | 144° |
| 2026-04-13 18:44 | 47.13277 | 10.73123 | 34849 ft | 407 kts | 144° |
| 2026-04-13 18:45 | 47.08662 | 10.77943 | 34855 ft | 407 kts | 145° |
| 2026-04-13 18:45 | 47.04048 | 10.82741 | 34873 ft | 406 kts | 145° |
| 2026-04-13 18:46 | 46.99441 | 10.87528 | 34889 ft | 406 kts | 145° |
| 2026-04-13 18:46 | 46.94822 | 10.92320 | 34871 ft | 407 kts | 145° |
| 2026-04-13 18:47 | 46.90192 | 10.97121 | 34881 ft | 408 kts | 145° |
| 2026-04-13 18:47 | 46.85560 | 11.01914 | 34891 ft | 408 kts | 145° |
| 2026-04-13 18:48 | 46.81000 | 11.06864 | 34873 ft | 410 kts | 138° |
| 2026-04-13 18:48 | 46.77003 | 11.12852 | 34872 ft | 412 kts | 135° |
| 2026-04-13 18:49 | 46.73038 | 11.18841 | 34885 ft | 414 kts | 135° |
| 2026-04-13 18:49 | 46.69033 | 11.24870 | 34887 ft | 415 kts | 135° |
| 2026-04-13 18:50 | 46.65013 | 11.30906 | 34851 ft | 415 kts | 135° |
| 2026-04-13 18:50 | 46.60992 | 11.36943 | 34865 ft | 416 kts | 135° |
| 2026-04-13 18:51 | 46.56960 | 11.42981 | 34861 ft | 416 kts | 136° |
| 2026-04-13 18:51 | 46.52927 | 11.48999 | 34861 ft | 416 kts | 136° |
| 2026-04-13 18:52 | 46.48895 | 11.55006 | 34866 ft | 415 kts | 136° |
| 2026-04-13 18:52 | 46.44857 | 11.61007 | 34877 ft | 415 kts | 136° |
| 2026-04-13 18:53 | 46.40824 | 11.66993 | 34886 ft | 415 kts | 136° |
| 2026-04-13 18:53 | 46.36791 | 11.72975 | 34919 ft | 415 kts | 136° |
| 2026-04-13 18:54 | 46.33432 | 11.77938 | 34917 ft | 415 kts | 136° |
| 2026-04-13 18:54 | 46.29390 | 11.83896 | 34919 ft | 414 kts | 136° |
| 2026-04-13 18:55 | 46.25348 | 11.89838 | 34918 ft | 414 kts | 136° |
| 2026-04-13 18:55 | 46.21305 | 11.95770 | 34914 ft | 414 kts | 136° |
| 2026-04-13 18:56 | 46.17270 | 12.01686 | 34904 ft | 414 kts | 136° |
| 2026-04-13 18:56 | 46.13246 | 12.07553 | 34882 ft | 415 kts | 136° |
| 2026-04-13 18:57 | 46.09183 | 12.13471 | 34885 ft | 415 kts | 136° |
| 2026-04-13 18:57 | 46.05114 | 12.19391 | 34866 ft | 416 kts | 136° |
| 2026-04-13 18:58 | 46.01041 | 12.25309 | 34870 ft | 416 kts | 136° |
| 2026-04-13 18:58 | 45.96956 | 12.31212 | 34865 ft | 416 kts | 136° |
| 2026-04-13 18:59 | 45.92873 | 12.37113 | 34859 ft | 416 kts | 136° |
| 2026-04-13 18:59 | 45.88796 | 12.43006 | 34874 ft | 416 kts | 136° |
| 2026-04-13 19:00 | 45.84707 | 12.48882 | 34868 ft | 416 kts | 136° |
| 2026-04-13 19:00 | 45.80612 | 12.54749 | 34863 ft | 416 kts | 136° |
| 2026-04-13 19:01 | 45.76521 | 12.60616 | 34860 ft | 416 kts | 136° |
| 2026-04-13 19:01 | 45.72419 | 12.66471 | 34840 ft | 416 kts | 137° |
| 2026-04-13 19:02 | 45.68320 | 12.72310 | 34841 ft | 415 kts | 137° |
| 2026-04-13 19:02 | 45.64229 | 12.78139 | 34845 ft | 415 kts | 137° |
| 2026-04-13 19:03 | 45.60159 | 12.83919 | 34834 ft | 416 kts | 137° |
| 2026-04-13 19:03 | 45.56051 | 12.89736 | 34830 ft | 416 kts | 137° |
| 2026-04-13 19:04 | 45.51941 | 12.95546 | 34814 ft | 416 kts | 137° |
| 2026-04-13 19:04 | 45.47822 | 13.01353 | 34819 ft | 416 kts | 138° |
| 2026-04-13 19:05 | 45.43705 | 13.07132 | 34823 ft | 416 kts | 138° |
| 2026-04-13 19:05 | 45.39584 | 13.12914 | 34831 ft | 416 kts | 138° |
| 2026-04-13 19:06 | 45.35463 | 13.18690 | 34831 ft | 416 kts | 138° |
| 2026-04-13 19:06 | 45.31325 | 13.24469 | 34832 ft | 417 kts | 139° |
| 2026-04-13 19:07 | 45.27085 | 13.30079 | 34818 ft | 416 kts | 140° |
| 2026-04-13 19:07 | 45.22754 | 13.35525 | 34825 ft | 416 kts | 141° |
| 2026-04-13 19:08 | 45.18413 | 13.40965 | 34826 ft | 416 kts | 140° |
| 2026-04-13 19:08 | 45.14083 | 13.46433 | 34832 ft | 417 kts | 141° |
| 2026-04-13 19:09 | 45.09765 | 13.51923 | 34832 ft | 417 kts | 141° |
| 2026-04-13 19:09 | 45.05468 | 13.57371 | 34817 ft | 418 kts | 140° |
| 2026-04-13 19:10 | 45.01133 | 13.62842 | 34825 ft | 418 kts | 140° |
| 2026-04-13 19:10 | 44.96779 | 13.68306 | 34829 ft | 418 kts | 141° |
| 2026-04-13 19:11 | 44.92428 | 13.73770 | 34839 ft | 419 kts | 141° |
| 2026-04-13 19:11 | 44.88069 | 13.79238 | 34832 ft | 419 kts | 141° |
| 2026-04-13 19:12 | 44.83711 | 13.84694 | 34816 ft | 419 kts | 141° |
| 2026-04-13 19:12 | 44.79353 | 13.90140 | 34820 ft | 419 kts | 141° |
| 2026-04-13 19:13 | 44.74986 | 13.95575 | 34825 ft | 419 kts | 141° |
| 2026-04-13 19:13 | 44.70623 | 14.00994 | 34823 ft | 419 kts | 141° |
| 2026-04-13 19:14 | 44.66280 | 14.06379 | 34821 ft | 419 kts | 141° |
| 2026-04-13 19:14 | 44.61906 | 14.11788 | 34805 ft | 419 kts | 142° |
| 2026-04-13 19:15 | 44.57534 | 14.17194 | 34804 ft | 419 kts | 142° |
| 2026-04-13 19:15 | 44.53152 | 14.22601 | 34809 ft | 419 kts | 142° |
| 2026-04-13 19:16 | 44.48768 | 14.27993 | 34809 ft | 419 kts | 142° |
| 2026-04-13 19:16 | 44.44385 | 14.33367 | 34815 ft | 419 kts | 142° |
| 2026-04-13 19:17 | 44.40003 | 14.38741 | 34793 ft | 419 kts | 142° |
| 2026-04-13 19:17 | 44.35622 | 14.44099 | 34791 ft | 419 kts | 142° |
| 2026-04-13 19:18 | 44.31228 | 14.49454 | 34796 ft | 419 kts | 142° |
| 2026-04-13 19:18 | 44.26836 | 14.54801 | 34795 ft | 419 kts | 142° |
| 2026-04-13 19:19 | 44.22443 | 14.60137 | 34804 ft | 419 kts | 143° |
| 2026-04-13 19:19 | 44.18045 | 14.65469 | 34798 ft | 419 kts | 143° |
| 2026-04-13 19:20 | 44.13645 | 14.70797 | 34799 ft | 419 kts | 143° |
| 2026-04-13 19:20 | 44.09238 | 14.76112 | 34795 ft | 419 kts | 143° |
| 2026-04-13 19:21 | 44.04831 | 14.81427 | 34799 ft | 419 kts | 143° |
| 2026-04-13 19:21 | 44.00416 | 14.86731 | 34793 ft | 420 kts | 143° |
| 2026-04-13 19:22 | 43.95993 | 14.92030 | 34795 ft | 420 kts | 143° |
| 2026-04-13 19:22 | 43.91572 | 14.97329 | 34782 ft | 420 kts | 142° |
| 2026-04-13 19:23 | 43.87142 | 15.02624 | 34798 ft | 421 kts | 143° |
| 2026-04-13 19:23 | 43.82734 | 15.07881 | 34797 ft | 421 kts | 142° |
| 2026-04-13 19:24 | 43.78298 | 15.13163 | 34805 ft | 421 kts | 143° |
| 2026-04-13 19:24 | 43.73859 | 15.18435 | 34803 ft | 420 kts | 143° |
| 2026-04-13 19:25 | 43.69419 | 15.23692 | 34803 ft | 420 kts | 143° |
| 2026-04-13 19:25 | 43.64984 | 15.28938 | 34780 ft | 420 kts | 143° |
| 2026-04-13 19:26 | 43.60543 | 15.34192 | 34780 ft | 420 kts | 142° |
| 2026-04-13 19:26 | 43.56099 | 15.39429 | 34786 ft | 420 kts | 144° |
| 2026-04-13 19:27 | 43.51645 | 15.44659 | 34791 ft | 420 kts | 143° |
| 2026-04-13 19:27 | 43.47190 | 15.49881 | 34789 ft | 420 kts | 143° |
| 2026-04-13 19:28 | 43.42739 | 15.55094 | 34794 ft | 420 kts | 144° |
| 2026-04-13 19:28 | 43.38279 | 15.60305 | 34793 ft | 421 kts | 143° |
| 2026-04-13 19:29 | 43.33814 | 15.65518 | 34778 ft | 421 kts | 143° |
| 2026-04-13 19:29 | 43.29345 | 15.70726 | 34781 ft | 422 kts | 143° |
| 2026-04-13 19:30 | 43.24858 | 15.75934 | 34787 ft | 423 kts | 143° |
| 2026-04-13 19:30 | 43.20361 | 15.81135 | 34802 ft | 423 kts | 143° |
| 2026-04-13 19:31 | 43.15861 | 15.86350 | 34805 ft | 423 kts | 143° |
| 2026-04-13 19:31 | 43.11390 | 15.91521 | 34807 ft | 424 kts | 143° |
| 2026-04-13 19:32 | 43.06877 | 15.96723 | 34812 ft | 424 kts | 143° |
| 2026-04-13 19:32 | 43.02366 | 16.01917 | 34794 ft | 424 kts | 144° |
| 2026-04-13 19:33 | 42.97838 | 16.07116 | 34806 ft | 425 kts | 144° |
| 2026-04-13 19:34 | 42.91044 | 16.14899 | 34808 ft | 425 kts | 144° |
| 2026-04-13 19:34 | 42.86503 | 16.20082 | 34811 ft | 425 kts | 144° |
| 2026-04-13 19:35 | 42.81958 | 16.25258 | 34818 ft | 426 kts | 144° |
| 2026-04-13 19:35 | 42.77441 | 16.30396 | 34817 ft | 426 kts | 144° |
| 2026-04-13 19:36 | 42.72888 | 16.35563 | 34806 ft | 426 kts | 144° |
| 2026-04-13 19:36 | 42.68332 | 16.40724 | 34813 ft | 426 kts | 144° |
| 2026-04-13 19:37 | 42.63769 | 16.45889 | 34820 ft | 427 kts | 144° |
| 2026-04-13 19:37 | 42.59209 | 16.51036 | 34827 ft | 426 kts | 144° |
| 2026-04-13 19:38 | 42.54640 | 16.56172 | 34829 ft | 426 kts | 144° |
| 2026-04-13 19:38 | 42.50077 | 16.61303 | 34826 ft | 426 kts | 144° |
| 2026-04-13 19:39 | 42.45509 | 16.66432 | 34840 ft | 426 kts | 144° |
| 2026-04-13 19:39 | 42.40934 | 16.71557 | 34822 ft | 426 kts | 144° |
| 2026-04-13 19:40 | 42.37134 | 16.75807 | 34825 ft | 427 kts | 145° |
| 2026-04-13 19:40 | 42.32563 | 16.80916 | 34834 ft | 427 kts | 145° |
| 2026-04-13 19:41 | 42.27981 | 16.86013 | 34836 ft | 427 kts | 145° |
| 2026-04-13 19:41 | 42.22654 | 16.91933 | 34849 ft | 427 kts | 145° |
| 2026-04-13 19:42 | 42.16520 | 16.98742 | 34853 ft | 427 kts | 145° |
| 2026-04-13 19:42 | 42.11930 | 17.03814 | 34858 ft | 426 kts | 146° |
| 2026-04-13 19:43 | 42.07344 | 17.08871 | 34848 ft | 426 kts | 146° |
| 2026-04-13 19:43 | 42.02781 | 17.13901 | 34849 ft | 427 kts | 146° |
| 2026-04-13 19:44 | 41.98185 | 17.18957 | 34863 ft | 427 kts | 146° |
| 2026-04-13 19:44 | 41.93553 | 17.23929 | 34861 ft | 424 kts | 151° |
| 2026-04-13 19:45 | 41.88363 | 17.27442 | 34870 ft | 416 kts | 161° |
| 2026-04-13 19:45 | 41.83053 | 17.30526 | 34873 ft | 416 kts | 161° |
| 2026-04-13 19:46 | 41.77754 | 17.33630 | 34879 ft | 415 kts | 161° |
| 2026-04-13 19:46 | 41.72454 | 17.36723 | 34879 ft | 415 kts | 161° |
| 2026-04-13 19:47 | 41.67159 | 17.39785 | 34850 ft | 415 kts | 162° |
| 2026-04-13 19:47 | 41.61865 | 17.42849 | 34855 ft | 415 kts | 162° |
| 2026-04-13 19:48 | 41.56575 | 17.45914 | 34858 ft | 415 kts | 162° |
| 2026-04-13 19:48 | 41.51314 | 17.48967 | 34872 ft | 415 kts | 162° |
| 2026-04-13 19:49 | 41.46022 | 17.52028 | 34874 ft | 415 kts | 162° |
| 2026-04-13 19:49 | 41.40719 | 17.55078 | 34878 ft | 415 kts | 162° |
| 2026-04-13 19:50 | 41.35420 | 17.58118 | 34881 ft | 414 kts | 162° |
| 2026-04-13 19:50 | 41.30123 | 17.61150 | 34892 ft | 414 kts | 162° |
| 2026-04-13 19:51 | 41.24827 | 17.64186 | 34890 ft | 414 kts | 162° |
| 2026-04-13 19:51 | 41.19533 | 17.67234 | 34882 ft | 414 kts | 162° |
| 2026-04-13 19:52 | 41.14244 | 17.70258 | 34886 ft | 414 kts | 162° |
| 2026-04-13 19:52 | 41.08952 | 17.73271 | 34886 ft | 414 kts | 162° |
| 2026-04-13 19:53 | 41.03655 | 17.76276 | 34871 ft | 414 kts | 162° |
| 2026-04-13 19:53 | 40.98369 | 17.79276 | 34886 ft | 413 kts | 163° |
| 2026-04-13 19:54 | 40.93084 | 17.82267 | 34891 ft | 413 kts | 163° |
| 2026-04-13 19:54 | 40.87804 | 17.85255 | 34884 ft | 412 kts | 163° |
| 2026-04-13 19:55 | 40.82530 | 17.88231 | 34888 ft | 412 kts | 163° |
| 2026-04-13 19:55 | 40.77254 | 17.91198 | 34922 ft | 412 kts | 163° |
| 2026-04-13 19:56 | 40.72024 | 17.94140 | 34928 ft | 410 kts | 163° |
| 2026-04-13 19:56 | 40.66772 | 17.97089 | 34926 ft | 410 kts | 163° |
| 2026-04-13 19:57 | 40.61703 | 18.00601 | 34521 ft | 418 kts | 149° |
| 2026-04-13 19:57 | 40.59568 | 18.03218 | 34164 ft | 423 kts | 138° |
| 2026-04-13 19:57 | 40.57780 | 18.06311 | 33793 ft | 425 kts | 133° |
| 2026-04-13 19:58 | 40.56069 | 18.09469 | 33380 ft | 422 kts | 133° |
| 2026-04-13 19:58 | 40.54363 | 18.12590 | 32969 ft | 419 kts | 133° |
| 2026-04-13 19:58 | 40.52659 | 18.15687 | 32544 ft | 418 kts | 134° |
| 2026-04-13 19:58 | 40.50956 | 18.18774 | 32147 ft | 416 kts | 134° |
| 2026-04-13 19:59 | 40.49261 | 18.21844 | 31762 ft | 413 kts | 134° |
| 2026-04-13 19:59 | 40.47577 | 18.24889 | 31384 ft | 411 kts | 134° |
| 2026-04-13 19:59 | 40.45900 | 18.27922 | 30984 ft | 409 kts | 134° |
| 2026-04-13 19:59 | 40.44238 | 18.30934 | 30543 ft | 406 kts | 134° |
| 2026-04-13 20:00 | 40.42583 | 18.33933 | 30101 ft | 404 kts | 134° |
| 2026-04-13 20:00 | 40.40939 | 18.36906 | 29613 ft | 401 kts | 134° |
| 2026-04-13 20:00 | 40.39306 | 18.39860 | 29104 ft | 399 kts | 134° |
| 2026-04-13 20:00 | 40.37681 | 18.42797 | 28589 ft | 396 kts | 134° |
| 2026-04-13 20:01 | 40.36064 | 18.45710 | 28103 ft | 394 kts | 134° |
| 2026-04-13 20:01 | 40.34459 | 18.48601 | 27619 ft | 391 kts | 134° |
| 2026-04-13 20:01 | 40.32859 | 18.51477 | 27147 ft | 389 kts | 134° |
| 2026-04-13 20:01 | 40.31270 | 18.54331 | 26682 ft | 387 kts | 134° |
| 2026-04-13 20:02 | 40.29692 | 18.57166 | 26225 ft | 384 kts | 134° |
| 2026-04-13 20:02 | 40.28120 | 18.59987 | 25787 ft | 382 kts | 134° |
| 2026-04-13 20:02 | 40.26561 | 18.62782 | 25339 ft | 379 kts | 134° |
| 2026-04-13 20:02 | 40.25008 | 18.65563 | 24902 ft | 377 kts | 134° |
| 2026-04-13 20:03 | 40.23465 | 18.68323 | 24459 ft | 374 kts | 134° |
| 2026-04-13 20:03 | 40.21934 | 18.71058 | 24045 ft | 371 kts | 134° |
| 2026-04-13 20:03 | 40.20414 | 18.73771 | 23628 ft | 369 kts | 133° |
| 2026-04-13 20:03 | 40.18904 | 18.76470 | 23166 ft | 366 kts | 133° |
| 2026-04-13 20:04 | 40.17423 | 18.79113 | 22662 ft | 364 kts | 133° |
| 2026-04-13 20:04 | 40.15929 | 18.81778 | 22178 ft | 362 kts | 133° |
| 2026-04-13 20:04 | 40.14444 | 18.84429 | 21708 ft | 360 kts | 133° |
| 2026-04-13 20:04 | 40.12967 | 18.87062 | 21250 ft | 359 kts | 133° |
| 2026-04-13 20:05 | 40.11490 | 18.89685 | 20797 ft | 357 kts | 133° |
| 2026-04-13 20:05 | 40.10017 | 18.92297 | 20346 ft | 355 kts | 133° |
| 2026-04-13 20:05 | 40.08553 | 18.94889 | 19908 ft | 354 kts | 133° |
| 2026-04-13 20:05 | 40.07095 | 18.97471 | 19471 ft | 353 kts | 133° |
| 2026-04-13 20:06 | 40.05578 | 18.99964 | 19036 ft | 347 kts | 140° |
| 2026-04-13 20:06 | 40.03830 | 19.02075 | 18626 ft | 340 kts | 146° |
| 2026-04-13 20:06 | 40.02037 | 19.04077 | 18227 ft | 339 kts | 146° |
| 2026-04-13 20:06 | 40.00255 | 19.06072 | 17779 ft | 337 kts | 146° |
| 2026-04-13 20:07 | 39.98477 | 19.08063 | 17331 ft | 335 kts | 145° |
| 2026-04-13 20:07 | 39.96712 | 19.10037 | 16888 ft | 334 kts | 145° |
| 2026-04-13 20:07 | 39.94954 | 19.12001 | 16420 ft | 332 kts | 145° |
| 2026-04-13 20:07 | 39.93203 | 19.13957 | 15990 ft | 331 kts | 145° |
| 2026-04-13 20:08 | 39.91457 | 19.15908 | 15564 ft | 330 kts | 145° |
| 2026-04-13 20:08 | 39.89722 | 19.17848 | 15148 ft | 328 kts | 145° |
| 2026-04-13 20:08 | 39.88016 | 19.19756 | 14741 ft | 327 kts | 145° |
| 2026-04-13 20:08 | 39.86297 | 19.21677 | 14335 ft | 325 kts | 145° |
| 2026-04-13 20:09 | 39.84583 | 19.23589 | 13940 ft | 323 kts | 145° |
| 2026-04-13 20:09 | 39.82877 | 19.25487 | 13513 ft | 321 kts | 145° |
| 2026-04-13 20:09 | 39.81187 | 19.27369 | 13064 ft | 319 kts | 145° |
| 2026-04-13 20:09 | 39.79504 | 19.29244 | 12623 ft | 317 kts | 144° |
| 2026-04-13 20:10 | 39.77834 | 19.31102 | 12183 ft | 315 kts | 144° |
| 2026-04-13 20:10 | 39.76171 | 19.32949 | 11759 ft | 312 kts | 144° |
| 2026-04-13 20:10 | 39.74527 | 19.34776 | 11337 ft | 310 kts | 144° |
| 2026-04-13 20:10 | 39.72892 | 19.36592 | 10916 ft | 307 kts | 144° |
| 2026-04-13 20:11 | 39.71274 | 19.38387 | 10511 ft | 305 kts | 144° |
| 2026-04-13 20:11 | 39.69664 | 19.40168 | 10104 ft | 302 kts | 144° |
| 2026-04-13 20:11 | 39.68069 | 19.41928 | 9675 ft | 299 kts | 143° |
| 2026-04-13 20:11 | 39.66419 | 19.43446 | 9214 ft | 283 kts | 159° |
| 2026-04-13 20:12 | 39.64621 | 19.44351 | 8808 ft | 272 kts | 162° |
| 2026-04-13 20:12 | 39.62876 | 19.45179 | 8488 ft | 262 kts | 162° |
| 2026-04-13 20:12 | 39.61176 | 19.45977 | 8221 ft | 258 kts | 162° |
| 2026-04-13 20:12 | 39.59502 | 19.46760 | 7925 ft | 254 kts | 163° |
| 2026-04-13 20:13 | 39.57894 | 19.47692 | 7652 ft | 255 kts | 150° |
| 2026-04-13 20:13 | 39.56634 | 19.49333 | 7384 ft | 263 kts | 128° |
| 2026-04-13 20:13 | 39.55960 | 19.51568 | 7113 ft | 274 kts | 105° |
| 2026-04-13 20:13 | 39.56025 | 19.54083 | 6845 ft | 284 kts | 88° |
| 2026-04-13 20:14 | 39.56102 | 19.56586 | 6583 ft | 272 kts | 105° |
| 2026-04-13 20:14 | 39.55572 | 19.58837 | 6325 ft | 259 kts | 124° |
| 2026-04-13 20:14 | 39.54555 | 19.60698 | 6045 ft | 248 kts | 140° |
| 2026-04-13 20:14 | 39.53234 | 19.62030 | 5767 ft | 236 kts | 152° |
| 2026-04-13 20:15 | 39.51876 | 19.63159 | 5486 ft | 226 kts | 152° |
| 2026-04-13 20:15 | 39.50585 | 19.64243 | 5211 ft | 216 kts | 152° |
| 2026-04-13 20:15 | 39.49350 | 19.65284 | 4941 ft | 208 kts | 152° |
| 2026-04-13 20:15 | 39.48150 | 19.66293 | 4669 ft | 204 kts | 153° |
| 2026-04-13 20:16 | 39.46967 | 19.67285 | 4395 ft | 201 kts | 152° |
| 2026-04-13 20:16 | 39.45795 | 19.68263 | 4118 ft | 199 kts | 152° |
| 2026-04-13 20:16 | 39.44634 | 19.69231 | 4003 ft | 198 kts | 152° |
| 2026-04-13 20:16 | 39.43490 | 19.70187 | 3983 ft | 190 kts | 152° |
| 2026-04-13 20:17 | 39.42419 | 19.71087 | 3997 ft | 179 kts | 153° |
| 2026-04-13 20:17 | 39.41395 | 19.71994 | 3869 ft | 179 kts | 147° |
| 2026-04-13 20:17 | 39.40548 | 19.73201 | 3766 ft | 185 kts | 133° |
| 2026-04-13 20:17 | 39.39973 | 19.74726 | 3660 ft | 194 kts | 117° |
| 2026-04-13 20:18 | 39.39750 | 19.76528 | 3562 ft | 214 kts | 101° |
| 2026-04-13 20:18 | 39.39781 | 19.78477 | 3473 ft | 217 kts | 100° |
| 2026-04-13 20:18 | 39.39813 | 19.80422 | 3362 ft | 215 kts | 97° |
| 2026-04-13 20:18 | 39.39844 | 19.82346 | 3242 ft | 213 kts | 97° |
| 2026-04-13 20:19 | 39.39872 | 19.84247 | 3119 ft | 209 kts | 97° |
| 2026-04-13 20:19 | 39.39898 | 19.86122 | 3008 ft | 208 kts | 97° |
| 2026-04-13 20:19 | 39.40030 | 19.87988 | 2911 ft | 212 kts | 85° |
| 2026-04-13 20:19 | 39.40445 | 19.89835 | 2903 ft | 215 kts | 81° |
| 2026-04-13 20:20 | 39.40869 | 19.91688 | 2904 ft | 215 kts | 81° |
| 2026-04-13 20:20 | 39.41289 | 19.93519 | 2901 ft | 205 kts | 82° |
| 2026-04-13 20:20 | 39.41685 | 19.95225 | 2921 ft | 194 kts | 83° |
| 2026-04-13 20:20 | 39.42346 | 19.96750 | 2895 ft | 202 kts | 47° |
| 2026-04-13 20:21 | 39.43645 | 19.97263 | 2882 ft | 198 kts | 355° |
| 2026-04-13 20:21 | 39.44931 | 19.96849 | 2891 ft | 189 kts | 346° |
| 2026-04-13 20:21 | 39.46194 | 19.96375 | 2784 ft | 190 kts | 344° |
| 2026-04-13 20:21 | 39.47462 | 19.95894 | 2499 ft | 188 kts | 346° |
| 2026-04-13 20:22 | 39.48699 | 19.95424 | 2196 ft | 182 kts | 346° |
| 2026-04-13 20:22 | 39.49889 | 19.94971 | 1934 ft | 176 kts | 347° |
| 2026-04-13 20:22 | 39.51054 | 19.94531 | 1690 ft | 173 kts | 348° |
| 2026-04-13 20:22 | 39.52196 | 19.94099 | 1458 ft | 170 kts | 347° |
| 2026-04-13 20:23 | 39.53327 | 19.93672 | 1245 ft | 168 kts | 346° |
| 2026-04-13 20:23 | 39.54434 | 19.93255 | 1015 ft | 164 kts | 346° |
| 2026-04-13 20:23 | 39.55514 | 19.92839 | 816 ft | 159 kts | 343° |
| 2026-04-13 20:23 | 39.56539 | 19.92360 | 645 ft | 157 kts | 340° |
| 2026-04-13 20:24 | 39.57564 | 19.91880 | 485 ft | 156 kts | 345° |
| 2026-04-13 20:24 | 39.58597 | 19.91595 | 270 ft | 148 kts | 352° |
| 2026-04-13 20:24 | 39.59593 | 19.91364 | 23 ft | 137 kts | 350° |
| 2026-04-13 20:24 | 39.60263 | 19.91196 | 21 ft | 55 kts | 348° |
| 2026-04-13 20:25 | 39.60497 | 19.91153 | 19 ft | 20 kts | 8° |
| 2026-04-13 20:25 | 39.60543 | 19.91172 | 18 ft | 3 kts | 22° |
| 2026-04-13 20:25 | 39.60554 | 19.91178 | 18 ft | 2 kts | 23° |
| 2026-04-13 20:25 | 39.60585 | 19.91208 | 20 ft | 11 kts | 47° |
| 2026-04-13 20:26 | 39.60596 | 19.91225 | 18 ft | 1 kts | 54° |
| 2026-04-13 20:26 | 39.60590 | 19.91272 | 19 ft | 1 kts | 122° |
| 2026-04-13 20:26 | 39.60588 | 19.91276 | 18 ft | 1 kts | 122° |
| 2026-04-13 20:26 | 39.60585 | 19.91283 | 18 ft | 1 kts | 119° |
| 2026-04-13 20:27 | 39.60584 | 19.91285 | 18 ft | 0 kts | 116° |
| 2026-04-13 20:27 | 39.60583 | 19.91322 | 18 ft | 2 kts | 84° |
| 2026-04-13 20:27 | 39.60588 | 19.91354 | 18 ft | 3 kts | 79° |
| 2026-04-13 20:27 | 39.60591 | 19.91377 | 18 ft | 0 kts | 79° |